Time;durP1;ratioP1;P1;durP2;ratioP2;P2;SDS_P1;SDS_P2;PMS_P1;PMS_P2;Temp;Humidity;BMP_temperature;BMP_pressure;BME280_temperature;BME280_humidity;BME280_pressure;Samples;Min_cycle;Max_cycle;Signal;HPM_P1;HPM_P2
2024/01/16 00:01:38;;;;;;;17.30;6.22;;;;;;;;;;10386132;28;20108;-77
2024/01/16 00:06:44;;;;;;;12.23;5.15;;;;;;;;;;10406741;28;20103;-77
2024/01/16 00:11:48;;;;;;;13.23;5.07;;;;;;;;;;10404548;28;20202;-77
2024/01/16 00:16:52;;;;;;;8.73;4.22;;;;;;;;;;10403225;28;20053;-77
2024/01/16 00:21:56;;;;;;;8.30;4.13;;;;;;;;;;10401738;28;20676;-77
2024/01/16 00:26:59;;;;;;;8.15;3.92;;;;;;;;;;10402677;28;20522;-77
2024/01/16 00:32:15;;;;;;;7.72;3.63;;;;;;;;;;10403365;28;20046;-78
2024/01/16 00:37:19;;;;;;;5.40;3.67;;;;;;;;;;10404101;28;20055;-77
2024/01/16 00:42:22;;;;;;;8.95;4.13;;;;;;;;;;10393560;28;20084;-77
2024/01/16 00:47:27;;;;;;;8.90;4.68;;;;;;;;;;10400798;28;20387;-77
2024/01/16 00:52:32;;;;;;;9.80;5.03;;;;;;;;;;10405600;28;20414;-77
2024/01/16 00:57:35;;;;;;;10.85;4.57;;;;;;;;;;10404238;28;20061;-77
2024/01/16 01:02:40;;;;;;;10.57;4.70;;;;;;;;;;10403521;28;20050;-77
2024/01/16 01:07:45;;;;;;;10.40;5.13;;;;;;;;;;10399980;28;20503;-77
2024/01/16 01:12:48;;;;;;;10.25;4.90;;;;;;;;;;10396025;28;20073;-77
2024/01/16 01:17:54;;;;;;;8.23;4.75;;;;;;;;;;10409098;28;20045;-77
2024/01/16 01:22:59;;;;;;;15.77;5.95;;;;;;;;;;10408957;28;20077;-77
2024/01/16 01:28:03;;;;;;;7.00;5.20;;;;;;;;;;10410432;28;20410;-77
2024/01/16 01:33:11;;;;;;;10.10;4.57;;;;;;;;;;10408949;28;20137;-77
2024/01/16 01:38:15;;;;;;;11.43;5.57;;;;;;;;;;10411181;28;20056;-77
2024/01/16 01:43:21;;;;;;;7.40;4.88;;;;;;;;;;10406642;28;20050;-77
2024/01/16 01:48:41;;;;;;;11.52;5.07;;;;;;;;;;10396072;28;20045;-77
2024/01/16 01:53:46;;;;;;;13.43;5.63;;;;;;;;;;10400292;28;20049;-77
2024/01/16 01:58:56;;;;;;;11.90;4.90;;;;;;;;;;10389910;28;20466;-77
2024/01/16 02:04:13;;;;;;;10.35;5.05;;;;;;;;;;10410258;28;20054;-77
2024/01/16 02:09:17;;;;;;;12.07;4.60;;;;;;;;;;10410848;28;20045;-77
2024/01/16 02:14:20;;;;;;;11.02;4.72;;;;;;;;;;10390142;28;20052;-77
2024/01/16 02:19:25;;;;;;;9.07;4.10;;;;;;;;;;10405936;28;20088;-77
2024/01/16 02:24:31;;;;;;;8.40;4.77;;;;;;;;;;10401918;28;20063;-77
2024/01/16 02:29:37;;;;;;;9.98;5.10;;;;;;;;;;10403188;28;20741;-77
2024/01/16 02:34:40;;;;;;;8.88;4.82;;;;;;;;;;10407411;28;20049;-77
2024/01/16 02:39:49;;;;;;;11.43;5.15;;;;;;;;;;10406783;28;20554;-77
2024/01/16 02:44:53;;;;;;;9.57;4.35;;;;;;;;;;10401214;28;20053;-77
2024/01/16 02:49:57;;;;;;;9.82;4.75;;;;;;;;;;10405349;28;20057;-77
2024/01/16 02:55:01;;;;;;;9.32;3.80;;;;;;;;;;10405827;28;20570;-77
2024/01/16 03:00:07;;;;;;;8.48;3.60;;;;;;;;;;10401106;28;20060;-77
2024/01/16 03:05:11;;;;;;;10.63;3.42;;;;;;;;;;10400623;28;20589;-77
2024/01/16 03:10:16;;;;;;;7.22;3.60;;;;;;;;;;10406353;28;20048;-77
2024/01/16 03:15:20;;;;;;;10.52;4.28;;;;;;;;;;10405771;28;20045;-77
2024/01/16 03:20:23;;;;;;;8.07;3.97;;;;;;;;;;10402390;28;20054;-77
2024/01/16 03:25:30;;;;;;;10.68;4.20;;;;;;;;;;10404487;28;20046;-77
2024/01/16 03:30:33;;;;;;;7.97;4.10;;;;;;;;;;10396058;28;20057;-77
2024/01/16 03:35:37;;;;;;;10.80;4.22;;;;;;;;;;10400576;28;20622;-77
2024/01/16 03:40:41;;;;;;;11.45;4.40;;;;;;;;;;10403109;28;20045;-77
2024/01/16 03:45:45;;;;;;;11.05;4.95;;;;;;;;;;10407401;28;20458;-77
2024/01/16 03:50:48;;;;;;;9.93;4.75;;;;;;;;;;10402273;28;20053;-77
2024/01/16 03:55:55;;;;;;;9.30;4.28;;;;;;;;;;10402860;28;20141;-77
2024/01/16 04:00:59;;;;;;;8.23;4.13;;;;;;;;;;10401765;28;20487;-77
2024/01/16 04:06:02;;;;;;;11.90;4.40;;;;;;;;;;10401889;28;20406;-77
2024/01/16 04:11:13;;;;;;;9.07;4.43;;;;;;;;;;10403414;28;20045;-77
2024/01/16 04:16:16;;;;;;;7.68;3.97;;;;;;;;;;10402758;28;20081;-77
2024/01/16 04:21:20;;;;;;;8.27;3.75;;;;;;;;;;10383221;28;20050;-78
2024/01/16 04:26:24;;;;;;;8.40;4.57;;;;;;;;;;10396963;28;20053;-78
2024/01/16 04:31:28;;;;;;;9.25;4.30;;;;;;;;;;10398555;28;20474;-77
2024/01/16 04:36:31;;;;;;;9.70;4.30;;;;;;;;;;10391828;28;20132;-77
2024/01/16 04:41:37;;;;;;;9.30;4.30;;;;;;;;;;10404447;28;20647;-77
2024/01/16 04:46:40;;;;;;;9.50;4.67;;;;;;;;;;10409011;28;20125;-77
2024/01/16 04:51:43;;;;;;;11.05;4.50;;;;;;;;;;10409974;28;20469;-77
2024/01/16 04:56:50;;;;;;;7.80;4.78;;;;;;;;;;10412174;28;20084;-77
2024/01/16 05:01:54;;;;;;;10.05;4.47;;;;;;;;;;10408081;28;20058;-77
2024/01/16 05:06:58;;;;;;;9.98;4.30;;;;;;;;;;10471695;22;20025;-76
2024/01/16 05:12:03;;;;;;;11.32;4.60;;;;;;;;;;10410874;28;20124;-75
2024/01/16 05:17:06;;;;;;;7.37;4.13;;;;;;;;;;10411201;28;20125;-76
2024/01/16 05:22:11;;;;;;;10.00;4.53;;;;;;;;;;10416381;28;20049;-75
2024/01/16 05:27:16;;;;;;;8.68;3.90;;;;;;;;;;10406448;28;20057;-76
2024/01/16 05:32:19;;;;;;;6.22;3.67;;;;;;;;;;10410920;28;20136;-75
2024/01/16 05:37:22;;;;;;;7.13;3.45;;;;;;;;;;10406797;28;20045;-76
2024/01/16 05:42:27;;;;;;;8.10;3.00;;;;;;;;;;10417887;28;20045;-76
2024/01/16 05:47:30;;;;;;;8.02;3.70;;;;;;;;;;10413506;28;20063;-76
2024/01/16 05:52:33;;;;;;;8.85;3.35;;;;;;;;;;10418766;28;20049;-76
2024/01/16 05:57:38;;;;;;;8.68;3.45;;;;;;;;;;10406868;28;20137;-75
2024/01/16 06:02:41;;;;;;;6.10;3.05;;;;;;;;;;10408304;28;20414;-76
2024/01/16 06:07:45;;;;;;;3.88;2.33;;;;;;;;;;10411301;28;20414;-76
2024/01/16 06:12:50;;;;;;;3.30;1.90;;;;;;;;;;10415699;28;20075;-76
2024/01/16 06:17:53;;;;;;;2.15;1.63;;;;;;;;;;10393865;28;20068;-76
2024/01/16 06:22:56;;;;;;;1.75;1.60;;;;;;;;;;10403846;28;20130;-76
2024/01/16 06:28:01;;;;;;;3.95;2.25;;;;;;;;;;10398029;28;20046;-76
2024/01/16 06:33:06;;;;;;;3.55;1.85;;;;;;;;;;10400370;28;20103;-76
2024/01/16 06:38:09;;;;;;;2.70;1.90;;;;;;;;;;10386882;28;20132;-76
2024/01/16 06:43:16;;;;;;;1.83;1.45;;;;;;;;;;10390810;28;20495;-76
2024/01/16 06:48:19;;;;;;;1.60;1.45;;;;;;;;;;10406537;28;20046;-76
2024/01/16 06:53:22;;;;;;;2.42;1.63;;;;;;;;;;10393364;28;20543;-76
2024/01/16 06:58:27;;;;;;;1.92;1.40;;;;;;;;;;10410864;28;20402;-76
2024/01/16 07:03:30;;;;;;;1.88;1.50;;;;;;;;;;10397738;28;20060;-76
2024/01/16 07:08:33;;;;;;;4.72;2.00;;;;;;;;;;10400510;28;20049;-76
2024/01/16 07:13:38;;;;;;;2.30;1.48;;;;;;;;;;10403507;28;20128;-76
2024/01/16 07:18:41;;;;;;;2.42;1.50;;;;;;;;;;10413531;28;20050;-76
2024/01/16 07:23:46;;;;;;;2.75;1.45;;;;;;;;;;10412700;28;20050;-76
2024/01/16 07:28:51;;;;;;;2.00;1.40;;;;;;;;;;10406866;28;20057;-76
2024/01/16 07:33:54;;;;;;;1.77;1.63;;;;;;;;;;10413276;28;20059;-76
2024/01/16 07:38:57;;;;;;;4.63;1.83;;;;;;;;;;10410659;28;20051;-76
2024/01/16 07:44:02;;;;;;;2.95;1.30;;;;;;;;;;10405269;28;20484;-76
2024/01/16 07:49:05;;;;;;;2.42;1.20;;;;;;;;;;10404561;28;20065;-76
2024/01/16 07:54:10;;;;;;;4.63;1.60;;;;;;;;;;10392484;28;20076;-76
2024/01/16 07:59:15;;;;;;;4.15;1.95;;;;;;;;;;10403405;28;20054;-76
2024/01/16 08:04:18;;;;;;;3.60;2.15;;;;;;;;;;10383758;28;20129;-76
2024/01/16 08:09:21;;;;;;;4.57;2.00;;;;;;;;;;10400191;28;20053;-75
2024/01/16 08:14:26;;;;;;;2.65;1.90;;;;;;;;;;10413228;28;20072;-76
2024/01/16 08:19:29;;;;;;;5.20;2.17;;;;;;;;;;10411168;28;20057;-76
2024/01/16 08:24:33;;;;;;;3.53;2.00;;;;;;;;;;10400398;28;20037;-76
2024/01/16 08:29:37;;;;;;;3.85;2.20;;;;;;;;;;10415452;28;20048;-75
2024/01/16 08:34:41;;;;;;;3.33;1.83;;;;;;;;;;10416530;28;20049;-76
2024/01/16 08:39:44;;;;;;;3.63;2.00;;;;;;;;;;10412130;28;20053;-76
2024/01/16 08:44:48;;;;;;;2.90;1.90;;;;;;;;;;10417629;28;20541;-75
2024/01/16 08:49:52;;;;;;;4.50;2.05;;;;;;;;;;10397257;28;20049;-76
2024/01/16 08:54:55;;;;;;;2.65;1.70;;;;;;;;;;10420086;28;20057;-76
2024/01/16 09:00:00;;;;;;;3.15;2.10;;;;;;;;;;10413462;28;20049;-76
2024/01/16 09:05:04;;;;;;;4.15;2.15;;;;;;;;;;10394802;28;20124;-76
2024/01/16 09:10:09;;;;;;;2.60;1.70;;;;;;;;;;10414166;28;20057;-76
2024/01/16 09:15:14;;;;;;;5.22;1.67;;;;;;;;;;10422115;28;20061;-76
2024/01/16 09:20:17;;;;;;;2.45;2.08;;;;;;;;;;10421376;28;20063;-76
2024/01/16 09:25:23;;;;;;;2.63;1.80;;;;;;;;;;10407210;28;20121;-76
2024/01/16 09:30:28;;;;;;;3.50;1.75;;;;;;;;;;10411214;28;20061;-76
2024/01/16 09:35:31;;;;;;;2.55;1.73;;;;;;;;;;10411008;28;20149;-76
2024/01/16 09:40:35;;;;;;;5.50;2.00;;;;;;;;;;10419017;28;20080;-76
2024/01/16 09:45:40;;;;;;;3.95;2.40;;;;;;;;;;10405742;28;20730;-76
2024/01/16 09:50:43;;;;;;;3.92;2.08;;;;;;;;;;10397680;28;20041;-76
2024/01/16 09:55:47;;;;;;;5.53;2.17;;;;;;;;;;10408169;28;20116;-76
2024/01/16 10:00:53;;;;;;;12.88;3.03;;;;;;;;;;10411993;28;20054;-76
2024/01/16 10:05:56;;;;;;;6.90;3.58;;;;;;;;;;10411836;28;20128;-76
2024/01/16 10:10:59;;;;;;;8.48;3.13;;;;;;;;;;10414173;28;20588;-76
2024/01/16 10:16:04;;;;;;;3.05;1.85;;;;;;;;;;10409676;28;20050;-76
2024/01/16 10:21:22;;;;;;;6.47;3.35;;;;;;;;;;10410183;28;20049;-76
2024/01/16 10:26:25;;;;;;;6.22;2.97;;;;;;;;;;10408810;28;20102;-76
2024/01/16 10:31:31;;;;;;;5.55;2.60;;;;;;;;;;10410349;28;20561;-76
2024/01/16 10:36:34;;;;;;;5.72;2.80;;;;;;;;;;10408919;28;20050;-76
2024/01/16 10:41:37;;;;;;;7.65;3.20;;;;;;;;;;10410586;28;20056;-76
2024/01/16 10:46:42;;;;;;;8.18;3.75;;;;;;;;;;10413699;28;20067;-76
2024/01/16 10:51:46;;;;;;;6.05;3.10;;;;;;;;;;10416482;28;20053;-76
2024/01/16 10:56:51;;;;;;;5.85;2.42;;;;;;;;;;10417727;28;20050;-76
2024/01/16 11:02:00;;;;;;;4.78;2.85;;;;;;;;;;10395652;28;20048;-75
2024/01/16 11:07:04;;;;;;;6.90;2.72;;;;;;;;;;10401149;23;20221;-75
2024/01/16 11:12:10;;;;;;;6.68;2.53;;;;;;;;;;10389739;28;20048;-75
2024/01/16 11:17:18;;;;;;;3.83;2.20;;;;;;;;;;10388392;28;20642;-75
2024/01/16 11:22:22;;;;;;;3.72;2.40;;;;;;;;;;10401635;28;20050;-75
2024/01/16 11:27:25;;;;;;;4.60;1.70;;;;;;;;;;10408725;28;20100;-75
2024/01/16 11:32:38;;;;;;;7.88;2.38;;;;;;;;;;10397982;28;20058;-75
2024/01/16 11:37:43;;;;;;;5.55;2.55;;;;;;;;;;10398368;28;20503;-75
2024/01/16 11:42:47;;;;;;;4.00;1.95;;;;;;;;;;10395852;28;20081;-75
2024/01/16 11:48:10;;;;;;;4.13;2.10;;;;;;;;;;10397632;28;20080;-75
2024/01/16 11:53:37;;;;;;;3.58;1.77;;;;;;;;;;10395108;28;20133;-75
2024/01/16 11:58:49;;;;;;;3.10;1.60;;;;;;;;;;10388754;28;20522;-75
2024/01/16 12:04:04;;;;;;;5.47;1.48;;;;;;;;;;10403324;28;20646;-75
2024/01/16 12:09:15;;;;;;;5.03;2.25;;;;;;;;;;10389613;28;20104;-75
2024/01/16 12:14:18;;;;;;;4.97;2.50;;;;;;;;;;10391073;28;20042;-75
2024/01/16 12:19:23;;;;;;;5.03;2.17;;;;;;;;;;10405995;28;20045;-75
2024/01/16 12:24:27;;;;;;;5.68;2.13;;;;;;;;;;10399868;28;20042;-76
2024/01/16 12:29:31;;;;;;;3.28;1.75;;;;;;;;;;10387416;28;20060;-75
2024/01/16 12:34:43;;;;;;;5.75;2.30;;;;;;;;;;10401465;28;20044;-75
2024/01/16 12:39:47;;;;;;;6.20;2.53;;;;;;;;;;10406737;28;20462;-76
2024/01/16 12:44:50;;;;;;;4.18;1.88;;;;;;;;;;10399685;28;20438;-75
2024/01/16 12:49:55;;;;;;;5.07;1.83;;;;;;;;;;10401073;28;20055;-75
2024/01/16 12:55:04;;;;;;;4.95;1.90;;;;;;;;;;10404317;28;20564;-75
2024/01/16 13:00:22;;;;;;;4.55;2.05;;;;;;;;;;10383630;28;20053;-75
2024/01/16 13:05:27;;;;;;;5.65;1.90;;;;;;;;;;10408888;28;20557;-75
2024/01/16 13:10:31;;;;;;;4.13;1.80;;;;;;;;;;10407528;28;20053;-75
2024/01/16 13:15:37;;;;;;;4.07;2.20;;;;;;;;;;10415355;28;20064;-76
2024/01/16 13:20:41;;;;;;;6.43;2.15;;;;;;;;;;10404352;28;20279;-75
2024/01/16 13:25:46;;;;;;;6.38;2.40;;;;;;;;;;10409138;28;20056;-76
2024/01/16 13:30:50;;;;;;;8.48;2.60;;;;;;;;;;10412880;28;20107;-75
2024/01/16 13:35:55;;;;;;;7.50;2.70;;;;;;;;;;10412295;28;20091;-75
2024/01/16 13:40:58;;;;;;;5.40;1.95;;;;;;;;;;10410577;28;20128;-75
2024/01/16 13:46:03;;;;;;;3.63;2.22;;;;;;;;;;10388962;28;20042;-75
2024/01/16 13:51:08;;;;;;;5.93;2.70;;;;;;;;;;10416569;28;20060;-75
2024/01/16 13:56:11;;;;;;;8.43;2.72;;;;;;;;;;10417895;28;20487;-75
2024/01/16 14:01:14;;;;;;;7.07;2.90;;;;;;;;;;10407347;28;20054;-75
2024/01/16 14:06:19;;;;;;;7.13;3.00;;;;;;;;;;10410928;28;20046;-75
2024/01/16 14:11:33;;;;;;;6.55;2.85;;;;;;;;;;10408002;28;20463;-75
2024/01/16 14:16:37;;;;;;;6.88;2.85;;;;;;;;;;10402593;28;20045;-75
2024/01/16 14:21:45;;;;;;;5.70;2.40;;;;;;;;;;10396704;28;20056;-75
2024/01/16 14:26:48;;;;;;;6.32;2.30;;;;;;;;;;10410641;28;20038;-75
2024/01/16 14:31:52;;;;;;;3.42;1.98;;;;;;;;;;10408547;28;20057;-75
2024/01/16 14:36:56;;;;;;;3.45;1.35;;;;;;;;;;10408309;28;20045;-75
2024/01/16 14:42:00;;;;;;;2.65;1.38;;;;;;;;;;10389046;28;20053;-75
2024/01/16 14:47:04;;;;;;;1.98;1.38;;;;;;;;;;10410245;28;20092;-74
2024/01/16 14:52:09;;;;;;;10.18;2.30;;;;;;;;;;10409269;28;20133;-75
2024/01/16 14:57:12;;;;;;;4.47;1.88;;;;;;;;;;10415525;28;20038;-75
2024/01/16 15:02:16;;;;;;;7.32;3.28;;;;;;;;;;10400298;28;20119;-75
2024/01/16 15:07:20;;;;;;;9.85;3.30;;;;;;;;;;10399045;28;20050;-77
2024/01/16 15:12:24;;;;;;;12.57;3.47;;;;;;;;;;10345152;28;20077;-75
2024/01/16 15:17:28;;;;;;;6.57;3.10;;;;;;;;;;10374669;28;20518;-75
2024/01/16 15:22:33;;;;;;;9.48;3.33;;;;;;;;;;10366683;28;20694;-75
2024/01/16 15:27:36;;;;;;;5.97;2.83;;;;;;;;;;10362839;28;20120;-75
2024/01/16 15:32:40;;;;;;;7.75;2.85;;;;;;;;;;10359854;28;20046;-75
2024/01/16 15:37:44;;;;;;;5.05;2.10;;;;;;;;;;10364743;28;20112;-75
2024/01/16 15:42:47;;;;;;;3.22;1.85;;;;;;;;;;10371477;28;20041;-75
2024/01/16 15:47:52;;;;;;;1.95;1.35;;;;;;;;;;10351001;28;20077;-76
2024/01/16 15:52:57;;;;;;;2.72;1.58;;;;;;;;;;10359983;28;20054;-76
2024/01/16 15:58:01;;;;;;;3.17;1.58;;;;;;;;;;10364434;28;20049;-75
2024/01/16 16:03:05;;;;;;;1.73;1.40;;;;;;;;;;10357489;28;20065;-76
2024/01/16 16:08:10;;;;;;;1.83;1.30;;;;;;;;;;10375419;28;20103;-76
2024/01/16 16:13:13;;;;;;;2.42;1.27;;;;;;;;;;10398066;28;20053;-75
2024/01/16 16:18:16;;;;;;;5.57;3.20;;;;;;;;;;10403118;28;20428;-76
2024/01/16 16:23:21;;;;;;;14.88;6.88;;;;;;;;;;10404876;28;20083;-76
2024/01/16 16:28:25;;;;;;;17.25;7.35;;;;;;;;;;10392837;28;20045;-76
2024/01/16 16:33:28;;;;;;;12.25;6.20;;;;;;;;;;10398085;28;20103;-75
2024/01/16 16:38:33;;;;;;;12.50;6.72;;;;;;;;;;10400647;28;20049;-75
2024/01/16 16:43:37;;;;;;;29.25;12.20;;;;;;;;;;10390427;28;20073;-75
2024/01/16 16:48:41;;;;;;;32.10;13.15;;;;;;;;;;10411711;28;20549;-76
2024/01/16 16:53:48;;;;;;;19.57;8.43;;;;;;;;;;10400660;28;20049;-75
2024/01/16 16:58:52;;;;;;;15.77;6.80;;;;;;;;;;10403902;28;20124;-76
2024/01/16 17:03:56;;;;;;;12.32;5.80;;;;;;;;;;10405879;28;20116;-75
2024/01/16 17:09:00;;;;;;;11.63;6.00;;;;;;;;;;10436512;23;20061;-76
2024/01/16 17:14:04;;;;;;;12.32;6.63;;;;;;;;;;10450960;28;20760;-77
2024/01/16 17:19:10;;;;;;;11.90;6.10;;;;;;;;;;10448244;28;20041;-77
2024/01/16 17:24:15;;;;;;;12.65;6.68;;;;;;;;;;10433989;28;20059;-77
2024/01/16 17:29:18;;;;;;;15.90;7.57;;;;;;;;;;10438628;28;21481;-77
2024/01/16 17:34:22;;;;;;;15.95;7.90;;;;;;;;;;10463108;28;20045;-77
2024/01/16 17:39:27;;;;;;;15.93;8.02;;;;;;;;;;10460313;28;20140;-77
2024/01/16 17:44:36;;;;;;;15.75;7.50;;;;;;;;;;10464534;28;20463;-77
2024/01/16 17:49:39;;;;;;;15.68;7.93;;;;;;;;;;10459289;28;20457;-77
2024/01/16 17:54:44;;;;;;;12.90;5.65;;;;;;;;;;10454715;28;20556;-77
2024/01/16 17:59:47;;;;;;;13.68;7.00;;;;;;;;;;10450522;28;20392;-77
2024/01/16 18:04:51;;;;;;;16.95;8.38;;;;;;;;;;10450369;28;20060;-77
2024/01/16 18:09:56;;;;;;;18.77;8.95;;;;;;;;;;10465188;28;20122;-77
2024/01/16 18:14:59;;;;;;;18.98;9.15;;;;;;;;;;10454198;28;20498;-77
2024/01/16 18:20:06;;;;;;;17.83;9.15;;;;;;;;;;10455042;28;20110;-77
2024/01/16 18:25:13;;;;;;;18.90;8.95;;;;;;;;;;10447102;28;20052;-77
2024/01/16 18:30:17;;;;;;;20.35;9.43;;;;;;;;;;10463222;28;20040;-77
2024/01/16 18:35:20;;;;;;;15.90;8.15;;;;;;;;;;10451973;28;20075;-77
2024/01/16 18:40:26;;;;;;;15.70;8.77;;;;;;;;;;10455321;28;20049;-77
2024/01/16 18:45:29;;;;;;;18.92;10.05;;;;;;;;;;10459627;28;20506;-77
2024/01/16 18:50:33;;;;;;;16.52;8.43;;;;;;;;;;10454427;28;20051;-77
2024/01/16 18:55:38;;;;;;;15.13;8.73;;;;;;;;;;10445085;28;20120;-77
2024/01/16 19:00:42;;;;;;;18.23;9.70;;;;;;;;;;10458580;28;20506;-77
2024/01/16 19:05:45;;;;;;;16.85;8.98;;;;;;;;;;10437653;28;20055;-75
2024/01/16 19:10:51;;;;;;;17.48;8.13;;;;;;;;;;10454209;28;20057;-75
2024/01/16 19:15:54;;;;;;;16.63;7.90;;;;;;;;;;10456391;28;20057;-75
2024/01/16 19:20:57;;;;;;;14.95;6.60;;;;;;;;;;10458687;28;20490;-75
2024/01/16 19:26:03;;;;;;;12.13;6.53;;;;;;;;;;10436504;28;20044;-75
2024/01/16 19:31:06;;;;;;;11.23;5.47;;;;;;;;;;10449904;28;20056;-75
2024/01/16 19:36:12;;;;;;;8.50;5.43;;;;;;;;;;10463017;28;20111;-75
2024/01/16 19:41:17;;;;;;;11.60;5.40;;;;;;;;;;10449288;28;20040;-75
2024/01/16 19:46:20;;;;;;;9.73;5.27;;;;;;;;;;10449851;28;20056;-74
2024/01/16 19:51:26;;;;;;;9.82;4.75;;;;;;;;;;10444700;28;20049;-74
2024/01/16 19:56:33;;;;;;;8.68;4.63;;;;;;;;;;10444902;28;20826;-74
2024/01/16 20:01:36;;;;;;;10.20;4.90;;;;;;;;;;10442681;28;20095;-74
2024/01/16 20:06:39;;;;;;;12.45;5.90;;;;;;;;;;10449117;28;20479;-74
2024/01/16 20:11:46;;;;;;;11.80;5.68;;;;;;;;;;10446963;28;20058;-74
2024/01/16 20:16:49;;;;;;;14.80;7.07;;;;;;;;;;10446771;28;20461;-74
2024/01/16 20:21:53;;;;;;;15.43;6.82;;;;;;;;;;10450334;28;20060;-75
2024/01/16 20:26:58;;;;;;;11.48;5.57;;;;;;;;;;10450592;28;20048;-74
2024/01/16 20:32:04;;;;;;;10.00;5.30;;;;;;;;;;10451505;28;20045;-74
2024/01/16 20:37:07;;;;;;;8.93;5.22;;;;;;;;;;10447985;28;20041;-74
2024/01/16 20:42:12;;;;;;;12.40;5.45;;;;;;;;;;10450609;28;20049;-74
2024/01/16 20:47:16;;;;;;;10.40;5.00;;;;;;;;;;10453413;28;20049;-74
2024/01/16 20:52:20;;;;;;;9.80;5.20;;;;;;;;;;10440675;28;20053;-74
2024/01/16 20:57:25;;;;;;;7.03;4.43;;;;;;;;;;10448307;28;20437;-74
2024/01/16 21:02:28;;;;;;;10.35;4.97;;;;;;;;;;10444874;28;20509;-75
2024/01/16 21:07:31;;;;;;;11.82;5.15;;;;;;;;;;10447963;28;20558;-74
2024/01/16 21:12:36;;;;;;;9.05;4.97;;;;;;;;;;10441742;28;20052;-74
2024/01/16 21:17:40;;;;;;;14.82;6.40;;;;;;;;;;10455222;28;20057;-74
2024/01/16 21:22:43;;;;;;;10.23;5.43;;;;;;;;;;10439805;28;20052;-74
2024/01/16 21:27:48;;;;;;;12.98;6.43;;;;;;;;;;10462530;28;20087;-74
2024/01/16 21:32:52;;;;;;;12.57;6.50;;;;;;;;;;10462219;28;20061;-74
2024/01/16 21:37:55;;;;;;;18.58;7.47;;;;;;;;;;10451299;28;20049;-74
2024/01/16 21:42:59;;;;;;;17.25;8.60;;;;;;;;;;10435838;28;20515;-74
2024/01/16 21:48:04;;;;;;;14.82;7.97;;;;;;;;;;10439764;28;20181;-74
2024/01/16 21:53:07;;;;;;;15.95;7.90;;;;;;;;;;10465214;28;20048;-74
2024/01/16 21:58:12;;;;;;;16.05;8.43;;;;;;;;;;10432427;28;20048;-74
2024/01/16 22:03:15;;;;;;;14.82;8.02;;;;;;;;;;10447913;28;20110;-74
2024/01/16 22:08:19;;;;;;;14.00;7.40;;;;;;;;;;10438079;28;20052;-74
2024/01/16 22:13:23;;;;;;;9.82;5.65;;;;;;;;;;10456628;28;20057;-74
2024/01/16 22:18:26;;;;;;;11.13;5.60;;;;;;;;;;10457782;28;20417;-74
2024/01/16 22:23:30;;;;;;;10.30;5.28;;;;;;;;;;10462152;28;20049;-74
2024/01/16 22:28:35;;;;;;;9.32;5.22;;;;;;;;;;10435968;28;20084;-74
2024/01/16 22:33:38;;;;;;;10.20;5.20;;;;;;;;;;10445590;28;20064;-74
2024/01/16 22:38:42;;;;;;;13.55;6.13;;;;;;;;;;10448667;28;20497;-74
2024/01/16 22:43:47;;;;;;;13.23;6.25;;;;;;;;;;10452808;28;20068;-74
2024/01/16 22:48:50;;;;;;;15.18;6.50;;;;;;;;;;10439590;28;20060;-74
2024/01/16 22:53:53;;;;;;;9.88;5.43;;;;;;;;;;10430642;28;20484;-74
2024/01/16 22:58:58;;;;;;;11.00;6.18;;;;;;;;;;10454951;28;20080;-74
2024/01/16 23:04:05;;;;;;;9.32;5.72;;;;;;;;;;10456749;28;20575;-74
2024/01/16 23:09:09;;;;;;;12.70;6.22;;;;;;;;;;10456652;28;20509;-74
2024/01/16 23:14:14;;;;;;;8.10;4.43;;;;;;;;;;10460048;28;20054;-74
2024/01/16 23:19:17;;;;;;;10.02;4.97;;;;;;;;;;10458856;28;20052;-74
2024/01/16 23:24:21;;;;;;;9.07;4.57;;;;;;;;;;10458203;28;20044;-74
2024/01/16 23:29:26;;;;;;;7.55;3.95;;;;;;;;;;10450201;28;20534;-74
2024/01/16 23:34:29;;;;;;;8.40;4.47;;;;;;;;;;10450335;28;20463;-74
2024/01/16 23:39:34;;;;;;;7.97;4.50;;;;;;;;;;10458046;28;20080;-74
2024/01/16 23:44:40;;;;;;;8.37;4.53;;;;;;;;;;10443482;28;20056;-74
2024/01/16 23:49:45;;;;;;;8.60;4.53;;;;;;;;;;10440044;28;20071;-74
2024/01/16 23:54:48;;;;;;;8.75;3.75;;;;;;;;;;10455374;28;20128;-74
2024/01/16 23:59:53;;;;;;;9.13;4.68;;;;;;;;;;10445069;28;20037;-74
